• Join FlightAware (Why Join?)
  • Login
  • US Flag 
11:23AM EDT


 

Airport Tracker/Info


-or-


 

Live Flight TrackerFlight Track Log ✈ DAL961 ✈ 24-Apr-2012 ✈ KMCI - KMSP

Flight Track Log - Related Links

Times and Time Zones

All times are in EDT time to prevent confusion due to time zone crossing. See the DAL961 flight status page for this flight to view local times or setup timezone preferences in your user account.

Time Position Orientation Groundspeed Altitude Reporting Facility
EDT Latitude Longitude Course Direction KTS MPH feet Rate Location/Type
08:47PM 39.2833 -94.7000 216° Southwest 147 169 1,900  Level Kansas City TRACON
08:49PM 39.2306 -94.7497 334° Northwest 170 196 4,300 2,520 Climbing Kansas City Center
08:51PM 39.3325 -94.8144 10° North 129 148 10,200 2,760 Climbing Kansas City Center
08:52PM 39.4286 -94.7933 10° North 283 326 12,700 2,400 Climbing Kansas City Center
08:53PM 39.5203 -94.7722 12° North 322 371 15,000 1,500 Climbing Kansas City Center
08:54PM 39.6078 -94.7483 12° North 342 394 15,800 1,920 Climbing Kansas City Center
08:55PM 39.7058 -94.7217 11° North 355 409 18,900 2,640 Climbing Kansas City Center
08:57PM 39.9497 -94.6619 North 384 442 24,500 2,280 Climbing Minneapolis Center
08:58PM 40.0600 -94.6506 North 396 456 26,400 1,680 Climbing Minneapolis Center
08:59PM 40.1619 -94.6336 North 401 461 27,900 1,440 Climbing Minneapolis Center
09:00PM 40.2786 -94.6247 North 409 471 29,300 1,500 Climbing Minneapolis Center
09:01PM 40.3972 -94.6053 North 415 478 31,000 1,800 Climbing Minneapolis Center
09:02PM 40.5139 -94.5911 North 422 486 33,000 1,740 Climbing Minneapolis Center
09:03PM 40.6283 -94.5739 11° North 422 486 34,500 960 Climbing Minneapolis Center
09:04PM 40.7536 -94.5408 15° North 417 480 35,000 240 Climbing Minneapolis Center
09:05PM 40.8642 -94.5017 17° North 412 474 35,000  Level Minneapolis Center
09:06PM 40.9769 -94.4569 16° North 412 474 35,000  Level Minneapolis Center
09:07PM 41.0856 -94.4147 16° North 418 481 35,000  Level Minneapolis Center
09:08PM 41.1878 -94.3750 16° North 418 481 35,000  Level Minneapolis Center
09:09PM 41.2983 -94.3325 15° North 418 481 35,000  Level Minneapolis Center
09:10PM 41.4069 -94.2925 16° North 413 475 35,000  Level Minneapolis Center
09:11PM 41.5194 -94.2500 16° North 413 475 35,000  Level Minneapolis Center
09:12PM 41.6386 -94.2042 16° North 413 475 35,000  Level Minneapolis Center
09:13PM 41.7386 -94.1667 18° North 413 475 35,000  Level Minneapolis Center
09:14PM 41.8472 -94.1206 15° North 413 475 35,000  Level Minneapolis Center
09:15PM 41.9597 -94.0800 16° North 413 475 35,000  Level Minneapolis Center
09:16PM 42.0661 -94.0392 17° North 413 475 35,000 -420 Level Minneapolis Center
09:17PM 42.1747 -93.9956 16° North 402 463 34,200 -900 Descending Minneapolis Center
09:18PM 42.2831 -93.9544 17° North 402 463 33,300 -600 Descending Minneapolis Center
09:19PM 42.3917 -93.9106 16° North 402 463 33,000 -180 Descending Minneapolis Center
09:20PM 42.5042 -93.8664 16° North 413 475 33,000  Level Minneapolis Center
09:21PM 42.6292 -93.8167 16° North 419 482 33,000  Level Minneapolis Center
09:22PM 42.7375 -93.7750 16° North 419 482 33,000  Level Minneapolis Center
09:23PM 42.8461 -93.7331 17° North 414 476 33,000  Level Minneapolis Center
09:24PM 42.9564 -93.6856 15° North 414 476 33,000 -360 Level Minneapolis Center
09:25PM 43.0606 -93.6461 17° North 407 468 32,300 -900 Descending Minneapolis Center
09:26PM 43.1711 -93.6011 15° North 407 468 31,300 -720 Descending Minneapolis Center
09:27PM 43.2836 -93.5586 North 401 461 30,900 -660 Descending Minneapolis Center
09:28PM 43.3939 -93.5444 North 396 456 30,000 -960 Descending Minneapolis Center
09:29PM 43.4961 -93.5389 North 389 448 29,000 -1,140 Descending Minneapolis Center
09:30PM 43.6086 -93.5219 North 392 451 27,800 -1,980 Descending Minneapolis Center
09:31PM 43.7106 -93.5078 North 381 438 25,100 -2,580 Descending Minneapolis Center
09:32PM 43.8125 -93.5022 North 372 428 22,800 -2,580 Descending Minneapolis Center
09:33PM 43.9083 -93.4936 North 352 405 20,100 -2,640 Descending Minneapolis Center
09:34PM 43.9736 -93.4833 North 332 382 18,300 -2,580 Descending FAA TRACON SMA TRACON (SMA)
09:34PM 44.0294 -93.4775 North 325 374 16,500 -2,640 Descending FAA TRACON SMA TRACON (SMA)
09:35PM 44.0908 -93.4728 North 318 366 14,800 -2,520 Descending FAA TRACON SMA TRACON (SMA)
09:36PM 44.1508 -93.4661 North 312 359 13,200 -2,340 Descending FAA TRACON SMA TRACON (SMA)
09:36PM 44.2044 -93.4617 17° North 314 361 11,700 -1,680 Descending FAA TRACON SMA TRACON (SMA)
09:37PM 44.2625 -93.4364 25° Northeast 323 372 11,000 -540 Descending FAA TRACON SMA TRACON (SMA)
09:38PM 44.3194 -93.3986 27° Northeast 327 376 11,000  Level FAA TRACON SMA TRACON (SMA)
09:38PM 44.3694 -93.3631 27° Northeast 328 377 11,000  Level FAA TRACON SMA TRACON (SMA)
09:39PM 44.4258 -93.3233 27° Northeast 328 377 11,000  Level FAA TRACON SMA TRACON (SMA)
09:40PM 44.4825 -93.2836 27° Northeast 328 377 11,000  Level FAA TRACON SMA TRACON (SMA)
09:40PM 44.5319 -93.2486 North 326 375 11,000 -420 Level FAA TRACON SMA TRACON (SMA)
09:41PM 44.5872 -93.2458 352° North 283 326 10,500 -1,140 Descending FAA TRACON SMA TRACON (SMA)
09:42PM 44.6367 -93.2553 352° North 256 295 9,500 -1,680 Descending FAA TRACON SMA TRACON (SMA)
09:42PM 44.6794 -93.2636 352° North 254 292 8,300 -1,140 Descending FAA TRACON SMA TRACON (SMA)
09:43PM 44.7278 -93.2736 352° North 252 290 8,000 -240 Descending FAA TRACON SMA TRACON (SMA)
09:44PM 44.7769 -93.2833 346° North 258 297 8,000  Level FAA TRACON SMA TRACON (SMA)
09:44PM 44.8197 -93.2989 304° West 264 304 8,000 -120 Level FAA TRACON SMA TRACON (SMA)
09:45PM 44.8478 -93.3581 299° West 263 303 7,900 -1,140 Descending FAA TRACON SMA TRACON (SMA)
09:46PM 44.8714 -93.4172 299° West 249 287 6,500 -1,800 Descending FAA TRACON SMA TRACON (SMA)
09:46PM 44.8925 -93.4708 340° North 257 296 5,500 -1,200 Descending FAA TRACON SMA TRACON (SMA)
09:47PM 44.9339 -93.4919 49° Northeast 255 293 5,000 -600 Descending FAA TRACON SMA TRACON (SMA)
09:48PM 44.9558 -93.4564 90° East 217 250 4,700 -780 Descending FAA TRACON SMA TRACON (SMA)
09:48PM 44.9556 -93.4069 112° Southeast 178 205 4,000 -1,440 Descending FAA TRACON SMA TRACON (SMA)
09:49PM 44.9436 -93.3653 121° Southeast 167 192 2,900 -1,320 Descending FAA TRACON SMA TRACON (SMA)
09:50PM 44.9278 -93.3275 122° Southeast 159 183 2,300 -780 Descending FAA TRACON SMA TRACON (SMA)
09:50PM 44.9139 -93.2956 121° Southeast 119 137 1,800 -600 Descending FAA TRACON SMA TRACON (SMA)
09:51PM 44.9050 -93.2744 121° Southeast 116 133 1,500 -600 Descending FAA TRACON SMA TRACON (SMA)
09:52PM 44.8933 -93.2475 121° Southeast 115 132 1,100 -600 Descending FAA TRACON SMA TRACON (SMA)